sensor_id;sensor_type;location;lat;lon;timestamp;pressure;altitude;pressure_sealevel;temperature;humidity
34081;BME280;20358;50.272;19.026;2023-03-25T00:00:25;97176.19;;;10.70;62.19
34081;BME280;20358;50.272;19.026;2023-03-25T00:03:34;97186.22;;;10.66;62.55
34081;BME280;20358;50.272;19.026;2023-03-25T00:06:43;97182.63;;;10.58;62.75
34081;BME280;20358;50.272;19.026;2023-03-25T00:09:52;97170.97;;;10.51;63.13
34081;BME280;20358;50.272;19.026;2023-03-25T00:12:58;97170.28;;;10.49;63.29
34081;BME280;20358;50.272;19.026;2023-03-25T00:16:08;97167.50;;;10.40;63.24
34081;BME280;20358;50.272;19.026;2023-03-25T00:19:14;97185.03;;;10.32;63.46
34081;BME280;20358;50.272;19.026;2023-03-25T00:22:23;97178.78;;;10.23;63.47
34081;BME280;20358;50.272;19.026;2023-03-25T00:25:32;97184.31;;;10.20;64.04
34081;BME280;20358;50.272;19.026;2023-03-25T00:28:39;97171.97;;;10.11;63.58
34081;BME280;20358;50.272;19.026;2023-03-25T00:31:45;97185.16;;;10.11;63.70
34081;BME280;20358;50.272;19.026;2023-03-25T00:34:52;97186.81;;;10.12;63.73
34081;BME280;20358;50.272;19.026;2023-03-25T00:37:58;97181.00;;;10.09;64.07
34081;BME280;20358;50.272;19.026;2023-03-25T00:41:13;97175.44;;;10.02;64.38
34081;BME280;20358;50.272;19.026;2023-03-25T00:44:24;97175.44;;;10.02;64.90
34081;BME280;20358;50.272;19.026;2023-03-25T00:47:31;97168.66;;;9.90;64.70
34081;BME280;20358;50.272;19.026;2023-03-25T00:50:37;97150.88;;;9.73;64.89
34081;BME280;20358;50.272;19.026;2023-03-25T00:53:44;97165.19;;;9.80;64.89
34081;BME280;20358;50.272;19.026;2023-03-25T00:56:53;97175.16;;;9.86;65.20
34081;BME280;20358;50.272;19.026;2023-03-25T00:59:59;97183.06;;;9.86;65.16
34081;BME280;20358;50.272;19.026;2023-03-25T01:03:07;97173.78;;;9.82;65.25
34081;BME280;20358;50.272;19.026;2023-03-25T01:06:16;97165.03;;;9.72;65.29
34081;BME280;20358;50.272;19.026;2023-03-25T01:09:23;97184.75;;;9.77;65.88
34081;BME280;20358;50.272;19.026;2023-03-25T01:12:33;97187.22;;;9.79;66.20
34081;BME280;20358;50.272;19.026;2023-03-25T01:15:39;97179.31;;;9.79;65.47
34081;BME280;20358;50.272;19.026;2023-03-25T01:18:46;97183.75;;;9.69;65.89
34081;BME280;20358;50.272;19.026;2023-03-25T01:21:52;97184.88;;;9.76;65.97
34081;BME280;20358;50.272;19.026;2023-03-25T01:24:59;97182.94;;;9.78;64.49
34081;BME280;20358;50.272;19.026;2023-03-25T01:28:08;97181.81;;;9.71;64.01
34081;BME280;20358;50.272;19.026;2023-03-25T01:31:16;97189.88;;;9.79;64.18
34081;BME280;20358;50.272;19.026;2023-03-25T01:34:24;97178.22;;;9.81;64.00
34081;BME280;20358;50.272;19.026;2023-03-25T01:37:31;97192.22;;;9.82;61.61
34081;BME280;20358;50.272;19.026;2023-03-25T01:40:37;97189.31;;;9.75;61.41
34081;BME280;20358;50.272;19.026;2023-03-25T01:47:13;97171.25;;;9.71;57.95
34081;BME280;20358;50.272;19.026;2023-03-25T01:50:21;97192.78;;;9.76;58.02
34081;BME280;20358;50.272;19.026;2023-03-25T01:53:31;97185.81;;;9.65;55.11
34081;BME280;20358;50.272;19.026;2023-03-25T01:56:40;97179.31;;;9.60;55.52
34081;BME280;20358;50.272;19.026;2023-03-25T01:59:51;97158.34;;;9.58;55.27
34081;BME280;20358;50.272;19.026;2023-03-25T02:03:03;97147.66;;;9.50;55.10
34081;BME280;20358;50.272;19.026;2023-03-25T02:06:18;97150.72;;;9.46;57.32
34081;BME280;20358;50.272;19.026;2023-03-25T02:09:31;97171.19;;;9.33;56.82
34081;BME280;20358;50.272;19.026;2023-03-25T02:12:41;97174.34;;;9.17;57.01
34081;BME280;20358;50.272;19.026;2023-03-25T02:19:58;97189.31;;;8.86;57.38
34081;BME280;20358;50.272;19.026;2023-03-25T02:27:34;97199.22;;;8.73;57.45
34081;BME280;20358;50.272;19.026;2023-03-25T02:31:13;97200.16;;;8.72;57.37
34081;BME280;20358;50.272;19.026;2023-03-25T02:34:51;97191.19;;;8.75;57.46
34081;BME280;20358;50.272;19.026;2023-03-25T02:38:27;97193.03;;;8.84;57.01
34081;BME280;20358;50.272;19.026;2023-03-25T02:41:45;97193.16;;;8.82;57.05
34081;BME280;20358;50.272;19.026;2023-03-25T02:45:02;97189.81;;;8.80;56.15
34081;BME280;20358;50.272;19.026;2023-03-25T02:48:20;97203.41;;;8.85;55.57
34081;BME280;20358;50.272;19.026;2023-03-25T02:51:34;97207.28;;;8.81;56.67
34081;BME280;20358;50.272;19.026;2023-03-25T02:54:51;97198.41;;;8.82;55.49
34081;BME280;20358;50.272;19.026;2023-03-25T02:58:07;97202.31;;;8.88;55.99
34081;BME280;20358;50.272;19.026;2023-03-25T03:01:18;97199.84;;;8.86;56.52
34081;BME280;20358;50.272;19.026;2023-03-25T03:04:25;97210.81;;;8.91;56.87
34081;BME280;20358;50.272;19.026;2023-03-25T03:07:32;97216.78;;;8.93;56.31
34081;BME280;20358;50.272;19.026;2023-03-25T03:10:54;97223.97;;;8.91;56.71
34081;BME280;20358;50.272;19.026;2023-03-25T03:14:27;97230.72;;;8.84;56.84
34081;BME280;20358;50.272;19.026;2023-03-25T03:17:52;97237.47;;;8.77;56.25
34081;BME280;20358;50.272;19.026;2023-03-25T03:21:15;97233.38;;;8.84;57.74
34081;BME280;20358;50.272;19.026;2023-03-25T03:24:32;97232.81;;;8.90;57.47
34081;BME280;20358;50.272;19.026;2023-03-25T03:27:50;97234.69;;;8.99;56.91
34081;BME280;20358;50.272;19.026;2023-03-25T03:31:05;97229.59;;;9.07;56.66
34081;BME280;20358;50.272;19.026;2023-03-25T03:34:42;97232.66;;;9.12;56.82
34081;BME280;20358;50.272;19.026;2023-03-25T03:37:57;97230.72;;;9.14;56.32
34081;BME280;20358;50.272;19.026;2023-03-25T03:41:11;97242.16;;;9.25;56.50
34081;BME280;20358;50.272;19.026;2023-03-25T03:44:30;97239.41;;;9.26;56.33
34081;BME280;20358;50.272;19.026;2023-03-25T03:47:44;97237.16;;;9.21;57.07
34081;BME280;20358;50.272;19.026;2023-03-25T03:50:59;97187.13;;;8.91;56.14
34081;BME280;20358;50.272;19.026;2023-03-25T03:54:15;97223.94;;;9.12;56.84
34081;BME280;20358;50.272;19.026;2023-03-25T03:57:30;97230.16;;;9.11;56.91
34081;BME280;20358;50.272;19.026;2023-03-25T04:00:49;97226.97;;;9.07;57.50
34081;BME280;20358;50.272;19.026;2023-03-25T04:04:05;97234.00;;;8.97;57.45
34081;BME280;20358;50.272;19.026;2023-03-25T04:07:17;97228.97;;;8.94;56.82
34081;BME280;20358;50.272;19.026;2023-03-25T04:10:32;97234.00;;;8.97;56.92
34081;BME280;20358;50.272;19.026;2023-03-25T04:13:51;97234.66;;;8.90;57.04
34081;BME280;20358;50.272;19.026;2023-03-25T04:17:06;97224.75;;;8.82;57.57
34081;BME280;20358;50.272;19.026;2023-03-25T04:20:15;97231.69;;;8.83;56.86
34081;BME280;20358;50.272;19.026;2023-03-25T04:23:27;97231.69;;;8.83;57.30
34081;BME280;20358;50.272;19.026;2023-03-25T04:26:35;97228.34;;;8.81;57.67
34081;BME280;20358;50.272;19.026;2023-03-25T04:29:42;97236.25;;;8.81;57.43
34081;BME280;20358;50.272;19.026;2023-03-25T04:32:51;97233.88;;;8.78;57.10
34081;BME280;20358;50.272;19.026;2023-03-25T04:35:59;97240.81;;;8.79;57.12
34081;BME280;20358;50.272;19.026;2023-03-25T04:39:05;97242.56;;;8.69;58.23
34081;BME280;20358;50.272;19.026;2023-03-25T04:42:11;97252.38;;;8.67;57.77
34081;BME280;20358;50.272;19.026;2023-03-25T04:45:19;97248.59;;;8.60;58.20
34081;BME280;20358;50.272;19.026;2023-03-25T04:48:33;97260.66;;;8.63;57.59
34081;BME280;20358;50.272;19.026;2023-03-25T04:51:44;97259.56;;;8.65;57.57
34081;BME280;20358;50.272;19.026;2023-03-25T04:54:51;97249.81;;;8.56;57.29
34081;BME280;20358;50.272;19.026;2023-03-25T04:57:57;97265.59;;;8.56;57.56
34081;BME280;20358;50.272;19.026;2023-03-25T05:01:05;97256.28;;;8.52;57.66
34081;BME280;20358;50.272;19.026;2023-03-25T05:04:16;97262.25;;;8.54;58.19
34081;BME280;20358;50.272;19.026;2023-03-25T05:07:24;97262.25;;;8.54;57.24
34081;BME280;20358;50.272;19.026;2023-03-25T05:10:31;97259.16;;;8.49;57.49
34081;BME280;20358;50.272;19.026;2023-03-25T05:13:38;97258.91;;;8.52;57.72
34081;BME280;20358;50.272;19.026;2023-03-25T05:16:45;97257.28;;;8.51;58.05
34081;BME280;20358;50.272;19.026;2023-03-25T05:19:54;97263.94;;;8.55;58.39
34081;BME280;20358;50.272;19.026;2023-03-25T05:23:00;97258.34;;;8.48;58.49
34081;BME280;20358;50.272;19.026;2023-03-25T05:26:07;97265.22;;;8.40;58.04
34081;BME280;20358;50.272;19.026;2023-03-25T05:29:14;97277.13;;;8.44;58.78
34081;BME280;20358;50.272;19.026;2023-03-25T05:32:22;97280.47;;;8.46;58.59
34081;BME280;20358;50.272;19.026;2023-03-25T05:35:34;97263.53;;;8.39;58.31
34081;BME280;20358;50.272;19.026;2023-03-25T05:38:41;97269.69;;;8.49;58.10
34081;BME280;20358;50.272;19.026;2023-03-25T05:41:48;97273.56;;;8.45;59.00
34081;BME280;20358;50.272;19.026;2023-03-25T05:44:57;97281.91;;;8.50;58.45
34081;BME280;20358;50.272;19.026;2023-03-25T05:48:04;97285.47;;;8.49;59.11
34081;BME280;20358;50.272;19.026;2023-03-25T05:51:16;97287.31;;;8.48;59.20
34081;BME280;20358;50.272;19.026;2023-03-25T05:54:23;97280.47;;;8.46;58.98
34081;BME280;20358;50.272;19.026;2023-03-25T05:57:30;97280.22;;;8.49;58.27
34081;BME280;20358;50.272;19.026;2023-03-25T06:00:36;97282.59;;;8.52;59.02
34081;BME280;20358;50.272;19.026;2023-03-25T06:03:43;97290.94;;;8.57;59.60
34081;BME280;20358;50.272;19.026;2023-03-25T06:06:52;97284.13;;;8.54;59.12
34081;BME280;20358;50.272;19.026;2023-03-25T06:09:59;97284.72;;;8.58;58.10
34081;BME280;20358;50.272;19.026;2023-03-25T06:13:05;97281.44;;;8.66;57.77
34081;BME280;20358;50.272;19.026;2023-03-25T06:16:12;97285.38;;;8.71;58.55
34081;BME280;20358;50.272;19.026;2023-03-25T06:19:19;97295.91;;;8.71;57.69
34081;BME280;20358;50.272;19.026;2023-03-25T06:22:31;97286.78;;;8.75;nan
34081;BME280;20358;50.272;19.026;2023-03-25T06:25:39;97292.94;;;8.85;58.15
34081;BME280;20358;50.272;19.026;2023-03-25T06:28:46;97306.63;;;9.00;57.97
34081;BME280;20358;50.272;19.026;2023-03-25T06:31:52;97304.09;;;8.98;57.48
34081;BME280;20358;50.272;19.026;2023-03-25T06:34:59;97308.34;;;9.10;56.63
34081;BME280;20358;50.272;19.026;2023-03-25T06:38:09;97297.75;;;9.21;55.94
34081;BME280;20358;50.272;19.026;2023-03-25T06:41:41;97306.53;;;9.32;56.58
34081;BME280;20358;50.272;19.026;2023-03-25T06:44:57;97306.88;;;9.48;57.09
34081;BME280;20358;50.272;19.026;2023-03-25T06:48:15;97304.41;;;9.56;55.20
34081;BME280;20358;50.272;19.026;2023-03-25T06:51:21;97312.22;;;9.67;54.51
34081;BME280;20358;50.272;19.026;2023-03-25T06:54:32;97316.44;;;9.89;54.92
34081;BME280;20358;50.272;19.026;2023-03-25T06:57:38;97305.94;;;10.08;55.15
34081;BME280;20358;50.272;19.026;2023-03-25T07:00:45;97314.03;;;10.25;53.72
34081;BME280;20358;50.272;19.026;2023-03-25T07:03:51;97310.44;;;10.36;53.81
34081;BME280;20358;50.272;19.026;2023-03-25T07:06:58;97300.44;;;10.49;53.51
34081;BME280;20358;50.272;19.026;2023-03-25T07:10:07;97295.44;;;10.65;52.65
34081;BME280;20358;50.272;19.026;2023-03-25T07:13:17;97295.69;;;10.72;52.02
34081;BME280;20358;50.272;19.026;2023-03-25T07:16:23;97291.44;;;10.61;52.18
34081;BME280;20358;50.272;19.026;2023-03-25T07:19:31;97296.00;;;10.69;52.37
34081;BME280;20358;50.272;19.026;2023-03-25T07:22:37;97287.94;;;10.61;51.88
34081;BME280;20358;50.272;19.026;2023-03-25T07:25:48;97270.44;;;10.50;52.31
34081;BME280;20358;50.272;19.026;2023-03-25T07:28:56;97277.38;;;10.51;52.48
34081;BME280;20358;50.272;19.026;2023-03-25T07:32:03;97277.94;;;10.55;52.48
34081;BME280;20358;50.272;19.026;2023-03-25T07:35:09;97273.78;;;10.52;52.59
34081;BME280;20358;50.272;19.026;2023-03-25T07:38:15;97268.75;;;10.59;52.47
34081;BME280;20358;50.272;19.026;2023-03-25T07:41:24;97264.31;;;10.69;51.45
34081;BME280;20358;50.272;19.026;2023-03-25T07:44:44;97259.56;;;10.82;51.70
34081;BME280;20358;50.272;19.026;2023-03-25T07:47:50;97246.78;;;10.87;51.11
34081;BME280;20358;50.272;19.026;2023-03-25T07:50:57;97256.59;;;11.04;51.46
34081;BME280;20358;50.272;19.026;2023-03-25T07:54:03;97251.59;;;11.01;50.36
34081;BME280;20358;50.272;19.026;2023-03-25T07:57:13;97263.94;;;11.10;50.57
34081;BME280;20358;50.272;19.026;2023-03-25T08:00:19;97258.66;;;11.10;49.19
34081;BME280;20358;50.272;19.026;2023-03-25T08:03:27;97264.78;;;11.01;49.06
34081;BME280;20358;50.272;19.026;2023-03-25T08:06:33;97252.88;;;10.78;48.84
34081;BME280;20358;50.272;19.026;2023-03-25T08:09:40;97255.81;;;10.75;49.86
34081;BME280;20358;50.272;19.026;2023-03-25T08:12:51;97248.47;;;10.69;49.65
34081;BME280;20358;50.272;19.026;2023-03-25T08:15:59;97259.44;;;10.64;49.21
34081;BME280;20358;50.272;19.026;2023-03-25T08:19:04;97245.16;;;10.48;48.32
34081;BME280;20358;50.272;19.026;2023-03-25T08:22:11;97246.00;;;10.38;48.47
34081;BME280;20358;50.272;19.026;2023-03-25T08:25:17;97255.16;;;10.34;48.73
34081;BME280;20358;50.272;19.026;2023-03-25T08:28:27;97211.28;;;10.14;48.71
34081;BME280;20358;50.272;19.026;2023-03-25T08:31:33;97231.69;;;10.41;49.02
34081;BME280;20358;50.272;19.026;2023-03-25T08:34:41;97247.53;;;10.51;48.82
34081;BME280;20358;50.272;19.026;2023-03-25T08:37:48;97247.94;;;10.36;49.99
34081;BME280;20358;50.272;19.026;2023-03-25T08:40:55;97259.59;;;10.43;48.29
34081;BME280;20358;50.272;19.026;2023-03-25T08:44:04;97237.13;;;10.39;49.28
34081;BME280;20358;50.272;19.026;2023-03-25T08:47:11;97241.53;;;10.49;49.77
34081;BME280;20358;50.272;19.026;2023-03-25T08:50:17;97232.91;;;10.56;50.19
34081;BME280;20358;50.272;19.026;2023-03-25T08:53:24;97239.69;;;10.78;50.51
34081;BME280;20358;50.272;19.026;2023-03-25T08:56:31;97235.38;;;10.77;49.64
34081;BME280;20358;50.272;19.026;2023-03-25T08:59:41;97243.41;;;10.85;49.37
34081;BME280;20358;50.272;19.026;2023-03-25T09:02:47;97243.41;;;10.85;49.65
34081;BME280;20358;50.272;19.026;2023-03-25T09:05:54;97235.34;;;10.96;49.87
34081;BME280;20358;50.272;19.026;2023-03-25T09:09:00;97236.13;;;11.06;49.63
34081;BME280;20358;50.272;19.026;2023-03-25T09:12:07;97225.03;;;11.02;47.81
34081;BME280;20358;50.272;19.026;2023-03-25T09:15:16;97241.69;;;11.03;47.55
34081;BME280;20358;50.272;19.026;2023-03-25T09:18:26;97229.59;;;11.10;47.50
34081;BME280;20358;50.272;19.026;2023-03-25T09:21:33;97243.38;;;11.04;47.29
34081;BME280;20358;50.272;19.026;2023-03-25T09:24:40;97248.16;;;10.72;47.08
34081;BME280;20358;50.272;19.026;2023-03-25T09:27:46;97229.03;;;10.60;47.71
34081;BME280;20358;50.272;19.026;2023-03-25T09:30:56;97209.81;;;10.77;48.28
34081;BME280;20358;50.272;19.026;2023-03-25T09:34:02;97231.31;;;10.92;47.64
34081;BME280;20358;50.272;19.026;2023-03-25T09:37:10;97241.19;;;10.90;47.65
34081;BME280;20358;50.272;19.026;2023-03-25T09:40:18;97227.00;;;10.91;46.96
34081;BME280;20358;50.272;19.026;2023-03-25T09:43:38;97224.47;;;10.99;47.29
34081;BME280;20358;50.272;19.026;2023-03-25T09:47:07;97212.53;;;10.95;47.17
34081;BME280;20358;50.272;19.026;2023-03-25T09:50:18;97209.78;;;10.87;46.93
34081;BME280;20358;50.272;19.026;2023-03-25T09:53:34;97222.81;;;10.98;46.93
34081;BME280;20358;50.272;19.026;2023-03-25T09:56:47;97200.31;;;11.21;47.40
34081;BME280;20358;50.272;19.026;2023-03-25T09:59:56;97193.09;;;11.33;46.57
34081;BME280;20358;50.272;19.026;2023-03-25T10:03:20;97210.75;;;11.32;47.58
34081;BME280;20358;50.272;19.026;2023-03-25T10:06:38;97214.19;;;10.96;47.50
34081;BME280;20358;50.272;19.026;2023-03-25T10:09:59;97210.66;;;10.59;50.44
34081;BME280;20358;50.272;19.026;2023-03-25T10:13:21;97176.28;;;10.31;53.89
34081;BME280;20358;50.272;19.026;2023-03-25T10:16:44;97186.25;;;10.18;54.09
34081;BME280;20358;50.272;19.026;2023-03-25T10:20:09;97175.16;;;9.76;57.23
34081;BME280;20358;50.272;19.026;2023-03-25T10:23:28;97190.81;;;9.59;58.11
34081;BME280;20358;50.272;19.026;2023-03-25T10:26:46;97250.75;;;9.27;58.23
34081;BME280;20358;50.272;19.026;2023-03-25T10:30:03;97240.03;;;8.68;58.67
34081;BME280;20358;50.272;19.026;2023-03-25T10:33:27;97227.72;;;8.27;62.08
34081;BME280;20358;50.272;19.026;2023-03-25T10:36:47;97230.25;;;7.85;63.06
34081;BME280;20358;50.272;19.026;2023-03-25T10:40:13;97225.72;;;7.87;64.44
34081;BME280;20358;50.272;19.026;2023-03-25T10:43:26;97204.00;;;7.74;64.23
34081;BME280;20358;50.272;19.026;2023-03-25T10:46:39;97211.19;;;7.72;64.58
34081;BME280;20358;50.272;19.026;2023-03-25T10:49:53;97202.59;;;7.70;64.31
34081;BME280;20358;50.272;19.026;2023-03-25T10:53:04;97185.22;;;7.79;64.16
34081;BME280;20358;50.272;19.026;2023-03-25T10:56:16;97185.06;;;7.91;63.03
34081;BME280;20358;50.272;19.026;2023-03-25T10:59:29;97176.66;;;8.09;62.02
34081;BME280;20358;50.272;19.026;2023-03-25T11:02:39;97170.72;;;8.27;62.96
34081;BME280;20358;50.272;19.026;2023-03-25T11:05:45;97167.53;;;8.54;62.31
34081;BME280;20358;50.272;19.026;2023-03-25T11:09:12;97145.44;;;8.66;60.14
34081;BME280;20358;50.272;19.026;2023-03-25T11:12:21;97162.47;;;8.92;60.58
34081;BME280;20358;50.272;19.026;2023-03-25T11:15:44;97161.38;;;9.04;54.08
34081;BME280;20358;50.272;19.026;2023-03-25T11:18:52;97174.50;;;9.15;53.43
34081;BME280;20358;50.272;19.026;2023-03-25T11:22:06;97157.34;;;9.31;52.33
34081;BME280;20358;50.272;19.026;2023-03-25T11:25:23;97148.81;;;9.57;51.74
34081;BME280;20358;50.272;19.026;2023-03-25T11:28:36;97142.41;;;9.79;50.96
34081;BME280;20358;50.272;19.026;2023-03-25T11:31:55;97159.91;;;9.80;50.77
34081;BME280;20358;50.272;19.026;2023-03-25T11:35:15;97147.09;;;10.04;53.69
34081;BME280;20358;50.272;19.026;2023-03-25T11:38:28;97135.91;;;9.93;52.60
34081;BME280;20358;50.272;19.026;2023-03-25T11:41:40;97129.09;;;9.71;51.56
34081;BME280;20358;50.272;19.026;2023-03-25T11:44:50;97129.53;;;9.86;50.83
34081;BME280;20358;50.272;19.026;2023-03-25T11:48:09;97116.34;;;9.86;50.41
34081;BME280;20358;50.272;19.026;2023-03-25T11:51:20;97141.84;;;10.14;50.39
34081;BME280;20358;50.272;19.026;2023-03-25T11:54:33;97130.47;;;10.32;49.97
34081;BME280;20358;50.272;19.026;2023-03-25T11:57:46;97132.63;;;10.47;49.85
34081;BME280;20358;50.272;19.026;2023-03-25T12:01:00;97133.16;;;10.60;49.13
34081;BME280;20358;50.272;19.026;2023-03-25T12:04:14;97118.00;;;10.62;49.08
34081;BME280;20358;50.272;19.026;2023-03-25T12:07:23;97121.25;;;10.83;48.14
34081;BME280;20358;50.272;19.026;2023-03-25T12:10:47;97151.13;;;10.83;47.48
34081;BME280;20358;50.272;19.026;2023-03-25T12:14:21;97144.22;;;10.73;46.42
34081;BME280;20358;50.272;19.026;2023-03-25T12:17:50;97152.59;;;10.68;46.72
34081;BME280;20358;50.272;19.026;2023-03-25T12:21:15;97153.75;;;10.47;47.78
34081;BME280;20358;50.272;19.026;2023-03-25T12:24:47;97159.31;;;10.43;48.30
34081;BME280;20358;50.272;19.026;2023-03-25T12:28:30;97149.34;;;9.80;50.94
34081;BME280;20358;50.272;19.026;2023-03-25T12:32:09;97151.28;;;9.68;51.01
34081;BME280;20358;50.272;19.026;2023-03-25T12:35:35;97182.69;;;9.32;49.26
34081;BME280;20358;50.272;19.026;2023-03-25T12:38:57;97161.34;;;9.35;49.19
34081;BME280;20358;50.272;19.026;2023-03-25T12:42:29;97168.72;;;9.41;50.59
34081;BME280;20358;50.272;19.026;2023-03-25T12:45:57;97181.78;;;9.52;50.01
34081;BME280;20358;50.272;19.026;2023-03-25T12:49:35;97154.91;;;9.67;49.09
34081;BME280;20358;50.272;19.026;2023-03-25T12:52:57;97136.88;;;9.82;48.63
34081;BME280;20358;50.272;19.026;2023-03-25T12:56:28;97150.47;;;9.87;48.71
34081;BME280;20358;50.272;19.026;2023-03-25T13:00:02;97140.47;;;10.00;49.03
34081;BME280;20358;50.272;19.026;2023-03-25T13:03:33;97143.22;;;10.18;49.42
34081;BME280;20358;50.272;19.026;2023-03-25T13:06:58;97142.94;;;10.21;49.29
34081;BME280;20358;50.272;19.026;2023-03-25T13:10:16;97143.25;;;10.27;49.35
34081;BME280;20358;50.272;19.026;2023-03-25T13:13:27;97129.88;;;10.38;49.11
34081;BME280;20358;50.272;19.026;2023-03-25T13:16:41;97133.88;;;10.52;47.45
34081;BME280;20358;50.272;19.026;2023-03-25T13:19:57;97127.03;;;10.69;47.35
34081;BME280;20358;50.272;19.026;2023-03-25T13:23:16;97110.00;;;10.81;47.52
34081;BME280;20358;50.272;19.026;2023-03-25T13:26:30;97101.69;;;10.76;46.66
34081;BME280;20358;50.272;19.026;2023-03-25T13:29:43;97103.44;;;10.85;46.63
34081;BME280;20358;50.272;19.026;2023-03-25T13:32:56;97104.84;;;10.89;46.68
34081;BME280;20358;50.272;19.026;2023-03-25T13:36:16;97098.56;;;10.90;47.07
34081;BME280;20358;50.272;19.026;2023-03-25T13:39:38;97110.50;;;10.94;46.89
34081;BME280;20358;50.272;19.026;2023-03-25T13:43:00;97103.34;;;10.77;47.13
34081;BME280;20358;50.272;19.026;2023-03-25T13:46:13;97106.28;;;11.01;45.81
34081;BME280;20358;50.272;19.026;2023-03-25T13:49:31;97108.25;;;10.99;44.54
34081;BME280;20358;50.272;19.026;2023-03-25T13:52:49;97093.38;;;10.98;43.33
34081;BME280;20358;50.272;19.026;2023-03-25T14:00:46;97096.16;;;10.69;44.54
34081;BME280;20358;50.272;19.026;2023-03-25T14:04:22;97105.09;;;10.59;43.96
34081;BME280;20358;50.272;19.026;2023-03-25T14:08:19;97106.56;;;10.34;43.86
34081;BME280;20358;50.272;19.026;2023-03-25T14:11:51;97106.19;;;10.66;44.06
34081;BME280;20358;50.272;19.026;2023-03-25T14:15:10;97089.75;;;10.72;43.42
34081;BME280;20358;50.272;19.026;2023-03-25T14:18:22;97096.66;;;10.82;42.88
34081;BME280;20358;50.272;19.026;2023-03-25T14:21:40;97088.38;;;10.68;42.28
34081;BME280;20358;50.272;19.026;2023-03-25T14:24:51;97085.59;;;10.69;42.07
34081;BME280;20358;50.272;19.026;2023-03-25T14:28:14;97096.31;;;10.95;42.43
34081;BME280;20358;50.272;19.026;2023-03-25T14:31:37;97088.59;;;10.84;42.09
34081;BME280;20358;50.272;19.026;2023-03-25T14:34:43;97091.09;;;10.85;42.82
34081;BME280;20358;50.272;19.026;2023-03-25T14:37:51;97093.28;;;10.90;42.51
34081;BME280;20358;50.272;19.026;2023-03-25T14:40:57;97100.97;;;10.83;43.04
34081;BME280;20358;50.272;19.026;2023-03-25T14:44:16;97098.78;;;10.79;42.39
34081;BME280;20358;50.272;19.026;2023-03-25T14:47:29;97100.41;;;10.80;42.69
34081;BME280;20358;50.272;19.026;2023-03-25T14:50:36;97084.69;;;10.88;41.64
34081;BME280;20358;50.272;19.026;2023-03-25T14:53:50;97095.06;;;10.62;41.60
34081;BME280;20358;50.272;19.026;2023-03-25T14:57:06;97098.66;;;10.71;41.93
34081;BME280;20358;50.272;19.026;2023-03-25T15:00:25;97111.13;;;10.78;41.94
34081;BME280;20358;50.272;19.026;2023-03-25T15:03:39;97102.66;;;10.75;41.43
34081;BME280;20358;50.272;19.026;2023-03-25T15:06:48;97101.25;;;10.80;41.67
34081;BME280;20358;50.272;19.026;2023-03-25T15:09:55;97122.78;;;10.85;42.03
34081;BME280;20358;50.272;19.026;2023-03-25T15:13:05;97122.53;;;10.79;41.40
34081;BME280;20358;50.272;19.026;2023-03-25T15:16:27;97126.72;;;10.72;42.06
34081;BME280;20358;50.272;19.026;2023-03-25T15:20:25;97140.00;;;10.53;42.08
34081;BME280;20358;50.272;19.026;2023-03-25T15:23:43;97145.19;;;9.97;45.02
34081;BME280;20358;50.272;19.026;2023-03-25T15:26:53;97179.34;;;9.98;46.00
34081;BME280;20358;50.272;19.026;2023-03-25T15:30:18;97155.72;;;9.68;46.84
34081;BME280;20358;50.272;19.026;2023-03-25T15:34:00;97184.28;;;9.44;47.40
34081;BME280;20358;50.272;19.026;2023-03-25T15:37:50;97172.03;;;9.24;48.29
34081;BME280;20358;50.272;19.026;2023-03-25T15:41:20;97170.88;;;9.16;49.08
34081;BME280;20358;50.272;19.026;2023-03-25T15:48:51;97154.41;;;8.84;48.84
34081;BME280;20358;50.272;19.026;2023-03-25T15:52:21;97178.53;;;8.89;48.67
34081;BME280;20358;50.272;19.026;2023-03-25T15:55:44;97174.72;;;8.82;49.66
34081;BME280;20358;50.272;19.026;2023-03-25T15:59:01;97166.03;;;8.82;49.38
34081;BME280;20358;50.272;19.026;2023-03-25T16:02:24;97175.19;;;8.87;49.63
34081;BME280;20358;50.272;19.026;2023-03-25T16:05:46;97164.03;;;9.04;48.86
34081;BME280;20358;50.272;19.026;2023-03-25T16:08:56;97170.50;;;9.00;48.28
34081;BME280;20358;50.272;19.026;2023-03-25T16:12:08;97167.19;;;8.98;48.66
34081;BME280;20358;50.272;19.026;2023-03-25T16:15:17;97162.72;;;8.89;47.68
34081;BME280;20358;50.272;19.026;2023-03-25T16:18:31;97174.09;;;8.90;48.92
34081;BME280;20358;50.272;19.026;2023-03-25T16:21:40;97174.03;;;8.80;49.18
34081;BME280;20358;50.272;19.026;2023-03-25T16:24:48;97170.53;;;8.70;48.79
34081;BME280;20358;50.272;19.026;2023-03-25T16:27:56;97171.66;;;8.77;48.04
34081;BME280;20358;50.272;19.026;2023-03-25T16:31:08;97169.38;;;8.93;47.60
34081;BME280;20358;50.272;19.026;2023-03-25T16:34:39;97177.91;;;8.76;48.84
34081;BME280;20358;50.272;19.026;2023-03-25T16:37:52;97171.66;;;8.77;48.71
34081;BME280;20358;50.272;19.026;2023-03-25T16:41:01;97142.91;;;8.55;47.80
34081;BME280;20358;50.272;19.026;2023-03-25T16:44:14;97189.19;;;8.67;48.40
34081;BME280;20358;50.272;19.026;2023-03-25T16:47:23;97172.91;;;8.73;48.43
34081;BME280;20358;50.272;19.026;2023-03-25T16:50:33;97186.72;;;8.66;48.97
34081;BME280;20358;50.272;19.026;2023-03-25T16:53:48;97194.47;;;8.67;49.28
34081;BME280;20358;50.272;19.026;2023-03-25T16:56:59;97167.00;;;8.60;48.62
34081;BME280;20358;50.272;19.026;2023-03-25T17:00:16;97181.34;;;8.46;49.42
34081;BME280;20358;50.272;19.026;2023-03-25T17:03:47;97203.78;;;8.71;48.60
34081;BME280;20358;50.272;19.026;2023-03-25T17:06:58;97212.16;;;8.55;48.93
34081;BME280;20358;50.272;19.026;2023-03-25T17:10:20;97209.38;;;8.57;49.38
34081;BME280;20358;50.272;19.026;2023-03-25T17:13:32;97206.03;;;8.55;50.11
34081;BME280;20358;50.272;19.026;2023-03-25T17:16:48;97214.69;;;8.46;50.77
34081;BME280;20358;50.272;19.026;2023-03-25T17:20:01;97210.66;;;8.42;50.23